Time;durP1;ratioP1;P1;durP2;ratioP2;P2;SDS_P1;SDS_P2;PMS_P1;PMS_P2;Temp;Humidity;BMP_temperature;BMP_pressure;BME280_temperature;BME280_humidity;BME280_pressure;Samples;Min_cycle;Max_cycle;Signal;HPM_P1;HPM_P2
2021/09/16 00:01:22;;;;;;;4.28;2.78;;;;;;;23.16;44.57;101614.88;5154231;27;20019;-75
2021/09/16 00:03:47;;;;;;;3.40;2.00;;;;;;;23.25;44.23;101614.59;5153960;27;20033;-75
2021/09/16 00:06:13;;;;;;;5.43;2.10;;;;;;;23.18;44.57;101609.72;5153929;27;20535;-75
2021/09/16 00:08:38;;;;;;;4.45;2.30;;;;;;;23.05;45.14;101605.59;5154092;27;20027;-75
2021/09/16 00:11:04;;;;;;;3.53;2.17;;;;;;;23.08;45.00;101607.59;5153945;27;20037;-76
2021/09/16 00:13:30;;;;;;;4.38;2.33;;;;;;;23.10;45.17;101599.66;5154089;27;20034;-75
2021/09/16 00:15:56;;;;;;;3.45;2.33;;;;;;;23.11;44.85;101601.25;5153897;27;20033;-75
2021/09/16 00:18:22;;;;;;;2.92;2.10;;;;;;;22.95;45.40;101606.22;5154042;27;20023;-84
2021/09/16 00:20:48;;;;;;;5.97;2.65;;;;;;;22.79;46.08;101598.00;5153837;27;20520;-75
2021/09/16 00:23:14;;;;;;;3.55;2.20;;;;;;;23.05;45.20;101600.00;5153962;27;20065;-75
2021/09/16 00:25:40;;;;;;;2.95;2.28;;;;;;;23.07;45.15;101600.44;5154018;27;20421;-75
2021/09/16 00:28:06;;;;;;;3.42;2.40;;;;;;;22.96;45.53;101605.03;5135347;27;20015;-75
2021/09/16 00:30:32;;;;;;;5.78;2.58;;;;;;;23.11;45.26;101604.03;5153813;27;20079;-75
2021/09/16 00:32:58;;;;;;;5.38;2.65;;;;;;;23.12;45.29;101602.06;5153878;27;20036;-75
2021/09/16 00:35:23;;;;;;;6.97;2.70;;;;;;;23.15;44.97;101598.53;5153569;27;20014;-75
2021/09/16 00:37:50;;;;;;;6.43;3.20;;;;;;;23.13;45.49;101593.34;5153553;27;20031;-77
2021/09/16 00:40:16;;;;;;;5.43;2.75;;;;;;;23.30;44.71;101591.16;5153625;27;20025;-75
2021/09/16 00:42:43;;;;;;;10.52;3.03;;;;;;;23.19;45.16;101589.03;5154110;27;20031;-75
2021/09/16 00:45:09;;;;;;;4.75;3.20;;;;;;;23.27;45.09;101581.53;5157866;27;20019;-76
2021/09/16 00:47:36;;;;;;;5.80;2.78;;;;;;;23.28;45.31;101585.97;5157618;27;20037;-75
2021/09/16 00:50:02;;;;;;;5.28;2.80;;;;;;;23.25;45.25;101584.72;5157754;27;20018;-75
2021/09/16 00:52:29;;;;;;;4.65;2.58;;;;;;;23.23;45.51;101591.88;5157519;27;20058;-75
2021/09/16 00:54:55;;;;;;;5.03;2.95;;;;;;;23.23;45.45;101589.09;5157694;27;20380;-75
2021/09/16 00:57:23;;;;;;;6.18;2.72;;;;;;;23.27;45.34;101584.34;5157583;27;20026;-75
2021/09/16 00:59:50;;;;;;;7.25;2.72;;;;;;;23.16;45.73;101589.78;5157541;27;20075;-76
2021/09/16 01:02:15;;;;;;;6.63;2.58;;;;;;;23.11;45.76;101586.53;5157191;27;20023;-75
2021/09/16 01:04:41;;;;;;;6.53;3.35;;;;;;;23.15;45.56;101593.75;5138607;27;20025;-75
2021/09/16 01:07:13;;;;;;;3.45;2.75;;;;;;;23.06;45.76;101584.09;5157385;27;20014;-75
2021/09/16 01:09:38;;;;;;;4.47;2.70;;;;;;;22.89;46.28;101596.56;5157343;27;20473;-75
2021/09/16 01:12:05;;;;;;;5.80;3.13;;;;;;;23.00;45.89;101593.94;5157296;27;20026;-75
2021/09/16 01:14:31;;;;;;;4.45;2.72;;;;;;;23.03;45.93;101596.78;5157264;27;20488;-75
2021/09/16 01:16:58;;;;;;;5.38;3.15;;;;;;;22.90;46.13;101598.22;5157210;27;20465;-75
2021/09/16 01:19:23;;;;;;;6.88;3.22;;;;;;;22.83;46.11;101587.72;5157203;27;20015;-75
2021/09/16 01:21:49;;;;;;;6.35;3.47;;;;;;;22.78;46.08;101592.81;5156827;27;20065;-75
2021/09/16 01:24:15;;;;;;;6.50;3.15;;;;;;;22.61;46.27;101603.31;5156898;27;20062;-75
2021/09/16 01:26:42;;;;;;;5.90;3.92;;;;;;;22.68;45.93;101603.44;5156847;27;20023;-75
2021/09/16 01:29:08;;;;;;;7.63;3.35;;;;;;;22.54;46.36;101602.41;5156705;27;20461;-75
2021/09/16 01:31:40;;;;;;;5.88;3.13;;;;;;;22.48;46.26;101603.88;5156938;27;20061;-75
2021/09/16 01:34:08;;;;;;;8.65;3.75;;;;;;;22.35;46.57;101603.28;5156850;27;20026;-75
2021/09/16 01:36:35;;;;;;;4.35;2.70;;;;;;;22.34;46.42;101602.47;5156802;27;20050;-75
2021/09/16 01:39:04;;;;;;;13.93;4.35;;;;;;;22.34;46.15;101601.66;5156645;27;20051;-75
2021/09/16 01:41:30;;;;;;;8.88;3.33;;;;;;;22.23;46.59;101603.50;5156728;27;20465;-84
2021/09/16 01:43:55;;;;;;;5.47;3.35;;;;;;;22.13;46.78;101602.91;5156663;27;20039;-75
2021/09/16 01:46:21;;;;;;;4.93;3.20;;;;;;;22.02;46.98;101598.31;5156621;27;20034;-76
2021/09/16 01:48:47;;;;;;;6.15;3.58;;;;;;;22.10;46.47;101598.09;5143973;27;20162;-75
2021/09/16 01:51:13;;;;;;;5.60;2.88;;;;;;;22.12;46.28;101592.94;5156565;27;20027;-74
2021/09/16 01:53:39;;;;;;;5.75;2.80;;;;;;;22.14;46.29;101596.19;5156344;27;20023;-76
2021/09/16 01:56:05;;;;;;;5.80;2.65;;;;;;;21.94;46.63;101596.56;5155490;27;20577;-75
2021/09/16 01:58:30;;;;;;;6.72;2.97;;;;;;;22.03;46.33;101592.38;5156221;27;20023;-74
2021/09/16 02:00:57;;;;;;;6.93;2.83;;;;;;;21.96;46.31;101606.16;5156380;27;20465;-78
2021/09/16 02:03:22;;;;;;;7.30;3.05;;;;;;;21.92;46.52;101599.72;5137562;27;20095;-75
2021/09/16 02:05:48;;;;;;;7.72;3.35;;;;;;;21.87;46.26;101598.03;5156337;27;20031;-75
2021/09/16 02:08:13;;;;;;;9.27;3.00;;;;;;;21.89;46.25;101592.09;5156127;27;20019;-75
2021/09/16 02:10:39;;;;;;;8.65;2.83;;;;;;;21.86;46.18;101592.84;5156189;27;20046;-75
2021/09/16 02:13:05;;;;;;;5.95;2.88;;;;;;;21.88;46.13;101601.63;5156117;27;20031;-75
2021/09/16 02:15:30;;;;;;;12.38;3.65;;;;;;;21.89;45.94;101589.31;5156102;27;20496;-74
2021/09/16 02:17:56;;;;;;;9.13;3.13;;;;;;;21.93;45.71;101595.78;5156085;27;20030;-75
2021/09/16 02:20:22;;;;;;;11.07;3.90;;;;;;;22.00;45.63;101586.75;5155431;27;20078;-75
2021/09/16 02:22:48;;;;;;;5.68;2.88;;;;;;;21.93;45.50;101587.44;5155793;27;20030;-75
2021/09/16 02:25:13;;;;;;;6.55;2.75;;;;;;;21.88;45.50;101587.72;5155698;27;20489;-75
2021/09/16 02:27:39;;;;;;;6.65;2.58;;;;;;;21.90;45.49;101585.38;5155633;27;20023;-76
2021/09/16 02:30:06;;;;;;;7.13;2.60;;;;;;;21.92;45.34;101585.03;5155837;27;20531;-75
2021/09/16 02:32:32;;;;;;;8.38;2.42;;;;;;;21.94;45.15;101585.44;5155755;27;20054;-75
2021/09/16 02:34:57;;;;;;;6.78;2.83;;;;;;;21.89;45.33;101595.69;5155482;27;20031;-75
2021/09/16 02:37:23;;;;;;;8.90;3.40;;;;;;;21.89;45.19;101584.56;5155683;27;20525;-75
2021/09/16 02:39:49;;;;;;;6.55;3.05;;;;;;;21.89;45.05;101578.19;5155543;27;20021;-75
2021/09/16 02:42:16;;;;;;;6.57;2.30;;;;;;;21.87;45.06;101580.56;5155488;27;20027;-75
2021/09/16 02:44:42;;;;;;;6.18;2.65;;;;;;;21.85;44.93;101577.34;5155478;27;20079;-75
2021/09/16 02:47:07;;;;;;;6.32;2.63;;;;;;;21.79;45.00;101570.47;5155445;27;20539;-75
2021/09/16 02:49:33;;;;;;;9.40;2.90;;;;;;;21.71;45.13;101574.31;5155437;27;20029;-75
2021/09/16 02:51:58;;;;;;;8.40;3.30;;;;;;;21.66;45.22;101577.38;5155428;27;20075;-75
2021/09/16 02:54:24;;;;;;;9.57;2.70;;;;;;;21.65;45.25;101568.22;5155310;27;20026;-75
2021/09/16 02:56:50;;;;;;;8.20;2.88;;;;;;;21.64;45.18;101566.63;5155279;27;20099;-75
2021/09/16 02:59:16;;;;;;;5.88;3.08;;;;;;;21.54;45.50;101570.81;5155235;27;20030;-75
2021/09/16 03:01:42;;;;;;;6.85;2.97;;;;;;;21.53;45.21;101560.03;5155109;27;20075;-75
2021/09/16 03:04:07;;;;;;;7.88;2.70;;;;;;;21.36;45.84;101552.16;5155080;27;20027;-75
2021/09/16 03:06:33;;;;;;;6.65;2.40;;;;;;;21.21;46.26;101556.59;5154174;27;20106;-75
2021/09/16 03:08:59;;;;;;;5.25;2.50;;;;;;;21.27;46.14;101563.47;5155133;27;20110;-75
2021/09/16 03:11:24;;;;;;;6.65;3.17;;;;;;;21.24;46.00;101565.03;5155024;27;20027;-74
2021/09/16 03:13:50;;;;;;;6.53;2.65;;;;;;;21.27;46.03;101564.31;5135882;27;20102;-75
2021/09/16 03:16:16;;;;;;;8.82;3.33;;;;;;;21.25;45.94;101565.81;5154887;27;20442;-75
2021/09/16 03:18:42;;;;;;;9.65;3.42;;;;;;;21.30;45.82;101558.00;5154871;27;20106;-75
2021/09/16 03:21:07;;;;;;;7.88;3.38;;;;;;;21.20;46.08;101563.31;5154611;27;20425;-75
2021/09/16 03:23:33;;;;;;;5.50;2.65;;;;;;;21.17;45.89;101564.06;5154700;27;20094;-84
2021/09/16 03:25:59;;;;;;;8.43;3.55;;;;;;;21.15;45.99;101555.28;5135780;27;20077;-75
2021/09/16 03:28:25;;;;;;;6.63;2.83;;;;;;;21.10;46.04;101559.16;5154488;27;20102;-75
2021/09/16 03:30:51;;;;;;;6.95;2.90;;;;;;;21.10;45.92;101555.59;5154488;27;20381;-75
2021/09/16 03:33:16;;;;;;;11.45;3.35;;;;;;;21.14;45.88;101559.22;5154432;27;20508;-75
2021/09/16 03:35:42;;;;;;;7.93;2.83;;;;;;;21.01;45.91;101564.94;5154297;27;20437;-75
2021/09/16 03:38:08;;;;;;;4.55;2.67;;;;;;;21.03;45.77;101561.78;5154516;27;20022;-75
2021/09/16 03:40:33;;;;;;;6.85;3.35;;;;;;;20.99;46.04;101556.13;5154131;27;20039;-75
2021/09/16 03:42:59;;;;;;;8.25;2.88;;;;;;;20.95;46.05;101562.81;5154174;27;20034;-75
2021/09/16 03:45:24;;;;;;;10.15;3.70;;;;;;;20.94;46.07;101559.22;5154488;27;20023;-75
2021/09/16 03:47:50;;;;;;;9.55;2.85;;;;;;;20.93;46.19;101554.00;5154226;27;20022;-76
2021/09/16 03:50:16;;;;;;;7.95;3.53;;;;;;;20.99;45.94;101556.13;5154416;27;20158;-75
2021/09/16 03:52:41;;;;;;;7.30;2.55;;;;;;;21.03;45.73;101550.69;5153918;27;20493;-75
2021/09/16 03:55:08;;;;;;;6.32;2.70;;;;;;;21.03;45.80;101553.44;5154321;27;20022;-75
2021/09/16 03:57:33;;;;;;;11.82;3.65;;;;;;;20.94;46.10;101550.88;5154287;27;20625;-75
2021/09/16 03:59:59;;;;;;;12.63;3.58;;;;;;;20.90;46.06;101552.78;5154189;27;20026;-75
2021/09/16 04:02:25;;;;;;;15.45;3.90;;;;;;;20.89;46.03;101561.47;5153716;27;20525;-75
2021/09/16 04:04:51;;;;;;;7.60;2.92;;;;;;;20.95;45.88;101555.28;5135577;27;20027;-75
2021/09/16 04:07:16;;;;;;;6.57;2.72;;;;;;;20.97;45.79;101541.81;5154230;27;20385;-76
2021/09/16 04:09:42;;;;;;;5.93;2.85;;;;;;;20.97;45.70;101547.38;5154310;27;20034;-76
2021/09/16 04:12:08;;;;;;;8.55;3.25;;;;;;;20.89;45.86;101553.94;5153988;27;20076;-75
2021/09/16 04:14:34;;;;;;;6.85;2.90;;;;;;;20.91;45.78;101551.59;5154097;27;20025;-75
2021/09/16 04:16:59;;;;;;;10.02;3.17;;;;;;;20.91;45.76;101559.94;5154125;27;20410;-75
2021/09/16 04:19:25;;;;;;;8.25;3.50;;;;;;;20.82;45.95;101564.09;5157699;27;20030;-76
2021/09/16 04:21:51;;;;;;;10.02;3.63;;;;;;;20.80;46.05;101564.47;5158084;27;20049;-76
2021/09/16 04:24:17;;;;;;;11.00;3.47;;;;;;;20.82;45.92;101564.09;5158267;27;20106;-76
2021/09/16 04:26:44;;;;;;;7.97;3.50;;;;;;;20.80;45.96;101556.13;5157871;27;20065;-76
2021/09/16 04:29:11;;;;;;;11.68;3.60;;;;;;;20.78;46.14;101556.50;5158001;27;20476;-76
2021/09/16 04:31:37;;;;;;;6.80;2.90;;;;;;;20.80;46.06;101555.31;5157886;27;20018;-76
2021/09/16 04:34:03;;;;;;;8.43;3.33;;;;;;;20.82;46.04;101566.88;5157750;27;20454;-76
2021/09/16 04:36:29;;;;;;;8.02;3.35;;;;;;;20.78;46.06;101550.09;5139461;27;20126;-76
2021/09/16 04:38:55;;;;;;;6.40;2.95;;;;;;;20.70;46.22;101556.66;5157904;27;20469;-76
2021/09/16 04:41:21;;;;;;;12.23;3.78;;;;;;;20.65;46.14;101543.09;5158009;27;20030;-75
2021/09/16 04:43:46;;;;;;;10.05;3.50;;;;;;;20.73;45.97;101544.84;5157925;27;20072;-75
2021/09/16 04:46:12;;;;;;;13.27;3.50;;;;;;;20.72;45.97;101537.69;5157852;27;20041;-76
2021/09/16 04:48:38;;;;;;;8.57;3.03;;;;;;;20.73;45.99;101547.63;5157812;27;20071;-75
2021/09/16 04:51:04;;;;;;;8.95;3.95;;;;;;;20.76;45.79;101553.25;5157544;27;20034;-84
2021/09/16 04:53:29;;;;;;;10.40;3.55;;;;;;;20.74;45.96;101554.78;5157628;27;20026;-75
2021/09/16 04:55:55;;;;;;;10.90;3.65;;;;;;;20.85;45.66;101546.69;5139022;27;20030;-75
2021/09/16 04:58:20;;;;;;;8.55;3.92;;;;;;;20.87;45.69;101545.19;5157365;27;20050;-75
2021/09/16 05:00:46;;;;;;;9.00;3.53;;;;;;;20.92;45.62;101541.28;5157576;27;20023;-75
2021/09/16 05:03:12;;;;;;;7.25;3.35;;;;;;;20.91;45.71;101548.03;5138859;27;20111;-75
2021/09/16 05:05:38;;;;;;;10.25;3.60;;;;;;;20.95;45.41;101558.06;5157486;27;20023;-76
2021/09/16 05:08:04;;;;;;;8.70;3.70;;;;;;;20.79;45.83;101560.06;5157475;27;20037;-75
2021/09/16 05:10:29;;;;;;;11.05;3.10;;;;;;;20.77;45.94;101559.63;5157481;27;20503;-75
2021/09/16 05:12:55;;;;;;;7.97;3.90;;;;;;;20.60;46.31;101549.72;5157375;27;20586;-75
2021/09/16 05:15:21;;;;;;;10.70;3.55;;;;;;;20.65;46.27;101555.00;5157227;27;20497;-76
2021/09/16 05:17:46;;;;;;;9.00;3.95;;;;;;;20.66;46.13;101553.03;5157238;27;20030;-75
2021/09/16 05:20:12;;;;;;;9.30;3.58;;;;;;;20.74;46.02;101552.03;5157000;27;20053;-76
2021/09/16 05:22:38;;;;;;;7.55;3.45;;;;;;;20.70;46.17;101549.16;5157122;27;20053;-76
2021/09/16 05:25:04;;;;;;;8.35;3.30;;;;;;;20.72;46.09;101551.59;5157138;27;20034;-75
2021/09/16 05:27:30;;;;;;;9.20;4.10;;;;;;;20.64;46.11;101552.59;5157413;27;20098;-75
2021/09/16 05:29:56;;;;;;;9.90;3.58;;;;;;;20.59;46.18;101553.66;5156658;27;20477;-75
2021/09/16 05:32:21;;;;;;;11.07;3.30;;;;;;;20.54;46.17;101550.34;5156960;27;20027;-83
2021/09/16 05:34:47;;;;;;;10.98;4.25;;;;;;;20.50;46.39;101553.88;5138349;27;20026;-75
2021/09/16 05:37:13;;;;;;;13.15;3.53;;;;;;;20.42;46.72;101562.34;5156772;27;20027;-75
2021/09/16 05:39:38;;;;;;;11.90;3.83;;;;;;;20.55;46.31;101560.28;5156937;27;20027;-75
2021/09/16 05:42:05;;;;;;;8.35;4.07;;;;;;;20.54;46.34;101559.50;5137905;27;20031;-75
2021/09/16 05:44:30;;;;;;;12.10;3.85;;;;;;;20.54;46.26;101569.78;5156618;27;20038;-75
2021/09/16 05:46:56;;;;;;;14.55;5.53;;;;;;;20.50;46.39;101551.09;5156544;27;20023;-75
2021/09/16 05:49:22;;;;;;;9.40;3.90;;;;;;;20.55;46.45;101560.28;5156630;27;20037;-75
2021/09/16 05:51:48;;;;;;;13.75;4.55;;;;;;;20.55;46.43;101550.00;5156671;27;20102;-74
2021/09/16 05:54:13;;;;;;;9.98;3.65;;;;;;;20.61;46.29;101551.31;5156601;27;20109;-75
2021/09/16 05:56:39;;;;;;;10.70;3.80;;;;;;;20.55;46.63;101549.19;5156094;27;20062;-74
2021/09/16 05:59:05;;;;;;;7.43;4.03;;;;;;;20.60;46.29;101544.16;5156422;27;20022;-75
2021/09/16 06:01:30;;;;;;;9.18;3.53;;;;;;;20.57;46.23;101546.88;5156567;27;20022;-76
2021/09/16 06:03:56;;;;;;;12.55;3.95;;;;;;;20.56;46.29;101553.59;5156135;27;20058;-75
2021/09/16 06:06:22;;;;;;;7.88;3.33;;;;;;;20.59;46.14;101555.63;5137640;27;20038;-75
2021/09/16 06:08:47;;;;;;;9.43;3.58;;;;;;;20.42;46.47;101554.84;5156061;27;20033;-74
2021/09/16 06:11:13;;;;;;;7.78;3.80;;;;;;;20.44;46.44;101543.41;5137162;27;20431;-74
2021/09/16 06:13:39;;;;;;;6.72;3.00;;;;;;;20.48;46.30;101545.09;5156194;27;20026;-74
2021/09/16 06:16:06;;;;;;;12.27;3.40;;;;;;;20.38;46.20;101547.56;5137517;27;20031;-74
2021/09/16 06:18:31;;;;;;;18.95;5.05;;;;;;;20.35;46.63;101545.53;5137520;27;20033;-74
2021/09/16 06:20:57;;;;;;;9.70;3.53;;;;;;;20.35;46.54;101549.09;5137136;27;20043;-82
2021/09/16 06:23:22;;;;;;;8.63;3.10;;;;;;;20.50;46.13;101555.84;5155932;27;20149;-79
2021/09/16 06:25:48;;;;;;;11.43;4.10;;;;;;;20.49;46.28;101557.00;5155997;27;20459;-74
2021/09/16 06:28:14;;;;;;;11.02;3.85;;;;;;;20.45;46.53;101554.13;5155571;27;20502;-74
2021/09/16 06:30:39;;;;;;;7.55;2.70;;;;;;;20.57;46.35;101555.19;5155699;27;20520;-74
2021/09/16 06:33:05;;;;;;;10.55;3.00;;;;;;;20.62;46.38;101568.78;5136876;27;20026;-75
2021/09/16 06:35:31;;;;;;;8.93;3.10;;;;;;;20.65;46.57;101568.88;5137110;27;20029;-74
2021/09/16 06:37:56;;;;;;;9.10;3.17;;;;;;;20.65;46.67;101568.09;5155346;27;20023;-74
2021/09/16 06:40:22;;;;;;;8.10;2.67;;;;;;;20.70;46.68;101570.56;5136486;27;20107;-74
2021/09/16 06:42:48;;;;;;;11.75;3.80;;;;;;;20.69;46.98;101571.72;5135922;27;20476;-74
2021/09/16 06:45:14;;;;;;;13.55;4.55;;;;;;;20.88;46.50;101577.34;5155592;27;20030;-75
2021/09/16 06:47:39;;;;;;;31.15;6.80;;;;;;;21.02;46.42;101560.97;5155375;27;20034;-75
2021/09/16 06:50:06;;;;;;;12.73;5.18;;;;;;;21.16;46.22;101570.75;5155170;27;20023;-74
2021/09/16 06:52:31;;;;;;;15.13;4.60;;;;;;;21.19;46.30;101568.06;5155291;27;20035;-82
2021/09/16 06:54:58;;;;;;;8.35;3.67;;;;;;;21.30;46.17;101569.13;5136686;27;20023;-74
2021/09/16 06:57:24;;;;;;;10.82;4.82;;;;;;;21.40;46.01;101567.75;5148864;27;20065;-74
2021/09/16 06:59:50;;;;;;;28.90;5.40;;;;;;;21.50;46.07;101564.38;5116346;27;20028;-75
2021/09/16 07:02:16;;;;;;;9.98;3.85;;;;;;;21.67;45.86;101573.41;5163113;27;20082;-75
2021/09/16 07:04:41;;;;;;;12.00;3.33;;;;;;;21.71;45.79;101569.53;5116109;27;20019;-76
2021/09/16 07:07:07;;;;;;;9.77;3.53;;;;;;;21.70;45.97;101562.38;5118963;27;20034;-74
2021/09/16 07:09:34;;;;;;;10.00;2.88;;;;;;;21.57;46.36;101572.03;5119301;27;20042;-75
2021/09/16 07:11:59;;;;;;;7.00;3.03;;;;;;;21.68;46.10;101569.44;5138021;27;20662;-73
2021/09/16 07:14:27;;;;;;;10.38;2.80;;;;;;;21.72;45.93;101564.78;5131012;27;20023;-75
2021/09/16 07:16:53;;;;;;;8.73;3.55;;;;;;;21.70;46.26;101565.16;5122271;27;20485;-74
2021/09/16 07:19:19;;;;;;;7.88;2.75;;;;;;;21.83;46.08;101566.56;5133817;27;20023;-74
2021/09/16 07:21:45;;;;;;;8.95;2.95;;;;;;;21.97;46.18;101562.44;5133410;27;20058;-74
2021/09/16 07:24:12;;;;;;;9.65;3.42;;;;;;;22.17;46.24;101557.66;5133883;27;20378;-74
2021/09/16 07:26:38;;;;;;;9.52;3.55;;;;;;;22.28;45.98;101562.19;5119636;27;20018;-81
2021/09/16 07:29:03;;;;;;;6.93;2.42;;;;;;;22.56;45.56;101567.41;5116926;27;20038;-76
2021/09/16 07:31:29;;;;;;;6.22;2.35;;;;;;;22.68;45.49;101561.66;5115088;27;20018;-73
2021/09/16 07:33:55;;;;;;;8.45;3.22;;;;;;;22.79;45.43;101550.63;5141692;27;20027;-73
2021/09/16 07:36:21;;;;;;;11.10;3.17;;;;;;;22.98;45.16;101560.91;5126597;27;20027;-71
2021/09/16 07:38:47;;;;;;;6.70;3.22;;;;;;;23.09;45.09;101556.25;5122283;27;20023;-72
2021/09/16 07:41:14;;;;;;;9.75;3.45;;;;;;;23.32;44.76;101549.75;5117953;27;20697;-73
2021/09/16 07:43:39;;;;;;;5.78;2.50;;;;;;;23.45;44.46;101551.91;5138190;27;20019;-73
2021/09/16 07:46:05;;;;;;;8.98;2.70;;;;;;;23.50;44.85;101553.53;5122911;27;20052;-74
2021/09/16 07:48:31;;;;;;;10.95;2.65;;;;;;;23.58;44.64;101552.44;5124254;27;20064;-75
2021/09/16 07:50:56;;;;;;;12.20;2.63;;;;;;;24.16;43.60;101549.03;5130128;27;20019;-76
2021/09/16 07:53:22;;;;;;;8.77;2.50;;;;;;;23.81;44.62;101557.91;5136739;27;20433;-74
2021/09/16 07:55:48;;;;;;;7.97;2.83;;;;;;;23.99;44.85;101550.47;5150492;27;20380;-74
2021/09/16 07:58:14;;;;;;;6.82;2.05;;;;;;;24.01;44.71;101555.66;5152772;27;20023;-74
2021/09/16 08:00:40;;;;;;;13.65;2.50;;;;;;;24.12;44.21;101567.75;5152419;27;20076;-74
2021/09/16 08:03:06;;;;;;;12.15;2.72;;;;;;;24.03;44.72;101558.88;5152031;27;20361;-73
2021/09/16 08:05:31;;;;;;;8.30;2.78;;;;;;;24.20;44.04;101563.81;5152183;27;20026;-74
2021/09/16 08:07:57;;;;;;;9.57;3.35;;;;;;;24.23;44.28;101562.25;5152267;27;20673;-75
2021/09/16 08:10:23;;;;;;;14.57;3.65;;;;;;;24.40;43.98;101569.19;5152272;27;20019;-74
2021/09/16 08:12:50;;;;;;;7.93;2.60;;;;;;;24.69;43.54;101573.78;5166801;27;20015;-74
2021/09/16 08:15:15;;;;;;;5.85;1.95;;;;;;;24.81;43.46;101567.88;5174685;27;20379;-74
2021/09/16 08:17:41;;;;;;;8.05;3.00;;;;;;;24.92;42.91;101571.50;5156211;27;20109;-74
2021/09/16 08:20:08;;;;;;;9.30;3.13;;;;;;;24.82;43.03;101572.25;5174878;27;20053;-74
2021/09/16 08:22:36;;;;;;;6.05;2.60;;;;;;;24.98;42.70;101571.16;5174384;27;20042;-74
2021/09/16 08:25:02;;;;;;;7.50;2.83;;;;;;;24.83;42.70;101570.28;5174591;27;20658;-74
2021/09/16 08:27:28;;;;;;;8.55;2.83;;;;;;;24.94;42.02;101565.56;5174742;27;20023;-74
2021/09/16 08:29:53;;;;;;;7.25;2.53;;;;;;;25.08;41.71;101564.81;5174649;27;20035;-74
2021/09/16 08:32:20;;;;;;;9.35;2.50;;;;;;;25.13;41.60;101558.88;5174638;27;20018;-74
2021/09/16 08:34:46;;;;;;;8.15;2.53;;;;;;;25.11;41.45;101553.69;5174402;27;20022;-74
2021/09/16 08:37:12;;;;;;;11.30;2.60;;;;;;;25.18;41.25;101550.09;5174431;27;20026;-77
2021/09/16 08:39:38;;;;;;;9.40;2.80;;;;;;;25.08;41.40;101554.44;5174673;27;20468;-74
2021/09/16 08:42:04;;;;;;;8.30;2.78;;;;;;;25.16;41.33;101552.47;5164017;27;20026;-73
2021/09/16 08:44:30;;;;;;;8.18;2.15;;;;;;;25.31;40.99;101551.34;5133032;27;20050;-74
2021/09/16 08:46:56;;;;;;;8.15;2.45;;;;;;;25.44;40.81;101546.19;5132723;27;20421;-76
2021/09/16 08:49:21;;;;;;;4.47;2.05;;;;;;;25.49;40.52;101536.63;5132839;27;20027;-74
2021/09/16 08:51:48;;;;;;;11.65;2.85;;;;;;;25.87;39.82;101535.09;5133094;27;20023;-74
2021/09/16 08:54:15;;;;;;;11.10;2.70;;;;;;;25.61;40.41;101534.22;5132537;27;20501;-74
2021/09/16 08:56:44;;;;;;;4.95;1.90;;;;;;;25.69;40.22;101532.25;5132786;27;20028;-78
2021/09/16 08:59:09;;;;;;;9.25;2.17;;;;;;;25.73;39.99;101538.69;5132967;27;20027;-74
2021/09/16 09:01:36;;;;;;;12.35;2.75;;;;;;;25.67;40.08;101531.84;5132596;27;20110;-74
2021/09/16 09:04:02;;;;;;;11.18;2.85;;;;;;;25.69;39.94;101535.03;5133832;27;20456;-75
2021/09/16 09:06:32;;;;;;;8.85;2.20;;;;;;;25.80;39.36;101535.09;5136548;27;20106;-74
2021/09/16 09:09:13;;;;;;;5.93;2.25;;;;;;;25.90;39.56;101535.09;5136607;27;20019;-74
2021/09/16 09:12:09;;;;;;;5.85;2.00;;;;;;;26.17;38.75;101532.72;5136028;27;20027;-74
2021/09/16 09:14:41;;;;;;;6.35;2.10;;;;;;;26.31;39.01;101531.91;5144010;27;20076;-74
2021/09/16 09:17:21;;;;;;;10.13;2.78;;;;;;;26.13;38.13;101526.31;5157277;27;20015;-74
2021/09/16 09:19:49;;;;;;;9.65;2.03;;;;;;;26.26;38.06;101529.50;5136529;27;20053;-74
2021/09/16 09:22:16;;;;;;;8.95;2.15;;;;;;;26.36;38.15;101527.88;5135955;27;20043;-74
2021/09/16 09:24:44;;;;;;;5.25;1.75;;;;;;;26.30;38.23;101513.50;5136333;27;20110;-74
2021/09/16 09:27:33;;;;;;;4.75;1.60;;;;;;;26.00;37.80;101523.13;5136121;27;20027;-74
2021/09/16 09:30:17;;;;;;;6.13;1.98;;;;;;;26.12;37.74;101523.91;5136328;27;20031;-74
2021/09/16 09:32:51;;;;;;;4.22;1.67;;;;;;;26.23;37.35;101517.09;5135895;27;20050;-73
2021/09/16 09:35:35;;;;;;;5.65;1.88;;;;;;;26.16;37.21;101524.72;5136263;27;20080;-74
2021/09/16 09:38:14;;;;;;;5.97;2.35;;;;;;;26.09;37.43;101513.50;5136117;27;20028;-73
2021/09/16 09:40:42;;;;;;;5.70;1.83;;;;;;;26.21;36.87;101521.50;5136107;27;20027;-74
2021/09/16 09:43:22;;;;;;;8.85;2.17;;;;;;;26.21;36.71;101521.50;5135753;27;20023;-74
2021/09/16 09:46:08;;;;;;;10.93;1.83;;;;;;;26.49;36.34;101518.69;5135492;27;20084;-74
2021/09/16 09:49:01;;;;;;;7.45;1.83;;;;;;;26.61;36.32;101525.09;5135381;27;20481;-74
2021/09/16 09:51:39;;;;;;;5.38;1.70;;;;;;;26.55;36.12;101531.09;5135725;27;20019;-74
2021/09/16 09:54:31;;;;;;;5.53;1.80;;;;;;;26.61;36.19;101537.09;5154804;27;20031;-75
2021/09/16 09:57:10;;;;;;;3.92;1.75;;;;;;;26.46;36.15;101530.72;5155869;27;20051;-74
2021/09/16 10:00:00;;;;;;;6.53;2.13;;;;;;;26.64;35.85;101532.66;5153944;27;20010;-74
2021/09/16 10:02:55;;;;;;;6.10;1.83;;;;;;;26.69;35.40;101530.25;5154620;27;20365;-73
2021/09/16 10:05:39;;;;;;;9.30;1.77;;;;;;;26.34;35.42;101533.88;5154052;27;20010;-75
2021/09/16 10:08:04;;;;;;;5.63;2.20;;;;;;;26.68;35.45;101539.88;5154956;27;20068;-74
2021/09/16 10:10:35;;;;;;;6.97;1.67;;;;;;;26.69;35.40;101535.88;5155689;27;20042;-74
2021/09/16 10:13:01;;;;;;;6.15;1.83;;;;;;;26.93;35.44;101537.00;5152870;27;20377;-74
2021/09/16 10:15:26;;;;;;;6.07;2.20;;;;;;;26.95;35.31;101528.97;5154548;27;20019;-77
2021/09/16 10:17:53;;;;;;;14.95;2.65;;;;;;;26.88;35.24;101526.19;5155662;27;20022;-74
2021/09/16 10:20:21;;;;;;;6.50;1.70;;;;;;;27.10;34.82;101515.72;5155358;27;20373;-75
2021/09/16 10:22:49;;;;;;;7.25;1.38;;;;;;;27.04;34.77;101522.94;5155085;27;20396;-75
2021/09/16 10:25:18;;;;;;;4.38;1.33;;;;;;;27.23;34.74;101524.47;5155467;27;20022;-74
2021/09/16 10:27:46;;;;;;;4.40;1.88;;;;;;;27.10;34.64;101518.50;5171514;27;20552;-73
2021/09/16 10:30:23;;;;;;;9.10;1.65;;;;;;;27.31;34.00;101520.41;5152588;27;20022;-70
2021/09/16 10:33:01;;;;;;;2.55;1.23;;;;;;;27.41;33.78;101513.13;5155251;27;20121;-71
2021/09/16 10:35:27;;;;;;;10.40;1.73;;;;;;;27.49;34.01;101517.50;5155782;27;20403;-70
2021/09/16 10:37:53;;;;;;;8.57;1.52;;;;;;;27.60;33.70;101512.63;5155634;27;20045;-71
2021/09/16 10:40:33;;;;;;;4.78;1.63;;;;;;;27.41;33.78;101507.53;5155172;27;20026;-70
2021/09/16 10:43:01;;;;;;;6.55;2.70;;;;;;;27.56;33.65;101515.44;5139010;27;20484;-79
2021/09/16 10:45:38;;;;;;;6.30;1.85;;;;;;;27.43;33.59;101511.50;5134176;27;20125;-71
2021/09/16 10:48:13;;;;;;;7.07;1.95;;;;;;;27.67;33.31;101504.19;5149491;27;20022;-79
2021/09/16 10:50:50;;;;;;;7.30;1.45;;;;;;;27.44;33.85;101496.28;5155022;27;20015;-71
2021/09/16 10:53:40;;;;;;;4.53;1.83;;;;;;;27.65;33.11;101500.94;5154901;27;20464;-70
2021/09/16 10:56:26;;;;;;;3.50;1.35;;;;;;;27.71;33.40;101504.16;5152287;27;20476;-78
2021/09/16 10:58:54;;;;;;;6.18;1.55;;;;;;;27.90;33.20;101498.00;5154931;27;20496;-71
2021/09/16 11:01:51;;;;;;;3.38;1.48;;;;;;;27.89;32.85;101499.19;5136368;27;20391;-79
2021/09/16 11:04:18;;;;;;;3.88;0.90;;;;;;;28.00;33.11;101499.09;5154625;27;20034;-70
2021/09/16 11:06:45;;;;;;;5.78;1.42;;;;;;;27.93;32.98;101485.91;5154860;27;20122;-70
2021/09/16 11:09:12;;;;;;;3.60;1.20;;;;;;;27.85;33.08;101482.38;5154869;27;20461;-70
2021/09/16 11:11:56;;;;;;;4.70;1.40;;;;;;;27.85;32.74;101476.75;5156056;27;20026;-78
2021/09/16 11:14:40;;;;;;;5.15;1.70;;;;;;;27.92;32.86;101471.06;5175741;27;20536;-80
2021/09/16 11:17:09;;;;;;;6.50;1.67;;;;;;;28.17;32.80;101453.97;5175740;27;20067;-71
2021/09/16 11:19:44;;;;;;;7.47;2.20;;;;;;;28.29;32.81;101463.91;5159351;27;20031;-74
2021/09/16 11:22:11;;;;;;;4.00;0.90;;;;;;;28.40;32.54;101461.78;5119747;27;20043;-74
2021/09/16 11:24:42;;;;;;;4.35;1.60;;;;;;;28.45;32.70;101463.34;5121517;27;20051;-81
2021/09/16 11:27:11;;;;;;;3.28;1.40;;;;;;;28.55;32.22;101470.84;5120721;27;20020;-75